createdAt,value
2018-07-23T00:01:50.450Z,19.83
2018-07-23T00:04:18.772Z,19.67
2018-07-23T00:06:47.011Z,19.70
2018-07-23T00:09:15.301Z,19.70
2018-07-23T00:11:44.432Z,19.70
2018-07-23T00:14:12.733Z,19.71
2018-07-23T00:16:41.024Z,19.76
2018-07-23T00:19:09.328Z,19.98
2018-07-23T00:21:37.621Z,19.85
2018-07-23T00:24:05.883Z,20.06
2018-07-23T00:26:34.127Z,20.08
2018-07-23T00:29:02.415Z,20.03
2018-07-23T00:31:30.723Z,20.01
2018-07-23T00:33:59.004Z,19.94
2018-07-23T00:36:27.269Z,19.81
2018-07-23T00:38:55.583Z,19.73
2018-07-23T00:41:23.861Z,19.76
2018-07-23T00:43:52.133Z,19.79
2018-07-23T00:46:20.511Z,19.66
2018-07-23T00:48:48.766Z,19.55
2018-07-23T00:51:17.071Z,19.55
2018-07-23T00:53:45.383Z,19.49
2018-07-23T00:56:13.684Z,19.48
2018-07-23T00:58:42.207Z,19.46
2018-07-23T01:01:10.679Z,19.41
2018-07-23T01:03:38.930Z,19.41
2018-07-23T01:06:07.195Z,19.33
2018-07-23T01:08:35.520Z,19.31
2018-07-23T01:11:03.762Z,19.18
2018-07-23T01:13:32.005Z,19.27
2018-07-23T01:16:00.280Z,19.17
2018-07-23T01:18:28.517Z,19.10
2018-07-23T01:20:56.824Z,19.12
2018-07-23T01:23:25.232Z,18.98
2018-07-23T01:25:53.541Z,18.91
2018-07-23T01:28:21.935Z,18.94
2018-07-23T01:30:50.219Z,18.96
2018-07-23T01:33:18.509Z,18.94
2018-07-23T01:35:46.777Z,18.76
2018-07-23T01:38:15.075Z,18.63
2018-07-23T01:40:43.401Z,18.51
2018-07-23T01:43:11.711Z,18.40
2018-07-23T01:45:40.292Z,18.36
2018-07-23T01:48:08.538Z,18.22
2018-07-23T01:50:36.844Z,18.09
2018-07-23T01:53:05.205Z,18.12
2018-07-23T01:55:33.599Z,18.02
2018-07-23T01:58:02.275Z,17.90
2018-07-23T02:00:30.556Z,18.06
2018-07-23T02:02:58.886Z,18.12
2018-07-23T02:05:27.166Z,18.09
2018-07-23T02:07:55.460Z,18.13
2018-07-23T02:10:24.016Z,18.02
2018-07-23T02:12:52.259Z,18.04
2018-07-23T02:15:20.513Z,18.01
2018-07-23T02:17:48.809Z,17.94
2018-07-23T02:20:17.046Z,17.93
2018-07-23T02:22:45.354Z,17.77
2018-07-23T02:25:13.691Z,17.81
2018-07-23T02:27:41.989Z,17.59
2018-07-23T02:30:10.289Z,17.44
2018-07-23T02:32:38.536Z,17.46
2018-07-23T02:35:06.828Z,17.57
2018-07-23T02:37:35.152Z,17.50
2018-07-23T02:40:03.411Z,17.42
2018-07-23T02:42:31.824Z,17.25
2018-07-23T02:45:00.097Z,17.29
2018-07-23T02:47:28.406Z,17.27
2018-07-23T02:49:56.779Z,17.23
2018-07-23T02:52:25.056Z,17.08
2018-07-23T02:54:53.400Z,17.03
2018-07-23T02:57:21.685Z,16.95
2018-07-23T02:59:49.983Z,16.96
2018-07-23T03:02:18.273Z,16.87
2018-07-23T03:04:46.539Z,16.92
2018-07-23T03:07:15.004Z,16.91
2018-07-23T03:09:43.262Z,16.94
2018-07-23T03:12:11.584Z,16.87
2018-07-23T03:14:39.856Z,16.75
2018-07-23T03:17:08.101Z,17.02
2018-07-23T03:19:36.394Z,17.00
2018-07-23T03:22:04.775Z,16.99
2018-07-23T03:24:34.620Z,16.83
2018-07-23T03:27:03.086Z,16.70
2018-07-23T03:29:31.498Z,16.87
2018-07-23T03:31:59.810Z,16.68
2018-07-23T03:34:28.093Z,16.51
2018-07-23T03:36:56.663Z,16.51
2018-07-23T03:39:24.952Z,16.47
2018-07-23T03:41:53.371Z,16.47
2018-07-23T03:44:21.659Z,16.57
2018-07-23T03:46:49.947Z,16.65
2018-07-23T03:49:18.224Z,16.53
2018-07-23T03:51:46.494Z,16.60
2018-07-23T03:54:15.122Z,16.54
2018-07-23T03:56:43.354Z,16.51
2018-07-23T03:59:11.631Z,16.46
2018-07-23T04:01:39.951Z,16.55
2018-07-23T04:04:08.236Z,16.55
2018-07-23T04:06:36.507Z,16.50
2018-07-23T04:09:07.453Z,16.48
2018-07-23T04:11:35.731Z,16.42
2018-07-23T04:14:04.025Z,16.52
2018-07-23T04:16:32.269Z,16.57
2018-07-23T04:19:00.563Z,16.59
2018-07-23T04:21:28.961Z,16.70
2018-07-23T04:23:57.207Z,16.73
2018-07-23T04:26:25.517Z,16.70
2018-07-23T04:28:53.769Z,16.76
2018-07-23T04:31:22.054Z,16.75
2018-07-23T04:33:50.374Z,16.77
2018-07-23T04:36:18.687Z,16.76
2018-07-23T04:38:46.991Z,16.85
2018-07-23T04:41:15.281Z,16.92
2018-07-23T04:43:43.591Z,16.92
2018-07-23T04:46:12.221Z,16.95
2018-07-23T04:48:40.624Z,16.96
2018-07-23T04:51:09.021Z,16.96
2018-07-23T04:53:37.335Z,17.05
2018-07-23T04:56:06.244Z,17.16
2018-07-23T04:58:34.599Z,17.27
2018-07-23T05:01:03.005Z,17.28
2018-07-23T05:03:31.276Z,17.27
2018-07-23T05:05:59.535Z,17.30
2018-07-23T05:08:28.134Z,17.36
2018-07-23T05:10:56.417Z,17.52
2018-07-23T05:13:24.815Z,17.58
2018-07-23T05:15:53.139Z,17.54
2018-07-23T05:18:21.447Z,17.55
2018-07-23T05:20:49.689Z,17.63
2018-07-23T05:23:18.001Z,17.65
2018-07-23T05:25:46.367Z,17.72
2018-07-23T05:28:14.730Z,17.82
2018-07-23T05:30:43.022Z,17.93
2018-07-23T05:33:11.885Z,18.07
2018-07-23T05:35:40.141Z,18.20
2018-07-23T05:38:08.639Z,18.31
2018-07-23T05:40:36.910Z,18.39
2018-07-23T05:43:05.261Z,18.30
2018-07-23T05:45:33.663Z,18.30
2018-07-23T05:48:01.973Z,18.42
2018-07-23T05:50:30.589Z,18.55
2018-07-23T05:52:58.896Z,18.61
2018-07-23T05:55:27.171Z,18.80
2018-07-23T05:57:55.691Z,18.92
2018-07-23T06:00:23.985Z,18.94
2018-07-23T06:02:52.358Z,19.09
2018-07-23T06:05:20.756Z,19.08
2018-07-23T06:07:49.026Z,19.39
2018-07-23T06:10:17.389Z,19.48
2018-07-23T06:12:45.642Z,19.65
2018-07-23T06:15:13.936Z,19.74
2018-07-23T06:17:42.470Z,19.86
2018-07-23T06:20:10.761Z,20.07
2018-07-23T06:22:39.091Z,20.18
2018-07-23T06:25:08.755Z,20.15
2018-07-23T06:27:37.060Z,20.35
2018-07-23T06:30:07.830Z,20.40
2018-07-23T06:32:36.150Z,20.47
2018-07-23T06:35:04.792Z,20.67
2018-07-23T06:37:33.243Z,20.61
2018-07-23T06:40:01.814Z,20.45
2018-07-23T06:42:30.540Z,20.37
2018-07-23T06:44:58.985Z,20.27
2018-07-23T06:47:27.675Z,20.43
2018-07-23T06:49:56.009Z,20.69
2018-07-23T06:52:27.708Z,20.83
2018-07-23T06:54:55.994Z,21.00
2018-07-23T06:57:24.327Z,21.23
2018-07-23T06:59:52.575Z,21.37
2018-07-23T07:02:20.873Z,21.22
2018-07-23T07:04:49.130Z,21.31
2018-07-23T07:07:17.481Z,21.56
2018-07-23T07:09:46.033Z,21.50
2018-07-23T07:12:14.380Z,21.67
2018-07-23T07:14:42.673Z,21.43
2018-07-23T07:17:10.953Z,21.27
2018-07-23T07:19:39.246Z,21.56
2018-07-23T07:22:07.499Z,21.64
2018-07-23T07:24:35.820Z,21.77
2018-07-23T07:27:04.152Z,21.65
2018-07-23T07:29:32.493Z,21.93
2018-07-23T07:32:00.771Z,21.66
2018-07-23T07:34:29.349Z,21.94
2018-07-23T07:36:57.624Z,22.22
2018-07-23T07:39:25.897Z,22.22
2018-07-23T07:41:54.185Z,22.46
2018-07-23T07:44:22.527Z,22.32
2018-07-23T07:46:50.971Z,22.52
2018-07-23T07:49:19.240Z,22.66
2018-07-23T07:51:47.505Z,22.59
2018-07-23T07:54:15.901Z,22.56
2018-07-23T07:56:44.223Z,22.20
2018-07-23T07:59:12.614Z,22.29
2018-07-23T08:01:40.938Z,22.56
2018-07-23T08:04:09.219Z,22.71
2018-07-23T08:06:37.481Z,22.73
2018-07-23T08:09:07.609Z,22.65
2018-07-23T08:11:36.112Z,22.91
2018-07-23T08:14:04.439Z,22.99
2018-07-23T08:16:32.820Z,22.82
2018-07-23T08:19:01.199Z,23.03
2018-07-23T08:21:29.572Z,23.31
2018-07-23T08:23:57.874Z,23.68
2018-07-23T08:26:26.262Z,23.90
2018-07-23T08:28:54.596Z,24.02
2018-07-23T08:31:22.893Z,23.77
2018-07-23T08:33:51.145Z,23.65
2018-07-23T08:36:19.429Z,23.33
2018-07-23T08:38:47.731Z,23.34
2018-07-23T08:41:18.154Z,23.82
2018-07-23T08:43:46.451Z,23.35
2018-07-23T08:46:14.844Z,23.49
2018-07-23T08:48:43.167Z,23.59
2018-07-23T08:51:11.430Z,23.60
2018-07-23T08:53:39.777Z,23.96
2018-07-23T08:56:08.088Z,23.59
2018-07-23T08:58:36.409Z,24.06
2018-07-23T09:01:04.652Z,24.29
2018-07-23T09:03:32.912Z,24.53
2018-07-23T09:06:01.218Z,24.05
2018-07-23T09:08:29.723Z,24.26
2018-07-23T09:10:57.996Z,24.58
2018-07-23T09:13:26.256Z,24.92
2018-07-23T09:15:54.569Z,24.55
2018-07-23T09:18:22.898Z,24.88
2018-07-23T09:20:51.179Z,25.07
2018-07-23T09:23:19.493Z,24.72
2018-07-23T09:25:48.281Z,24.85
2018-07-23T09:28:17.874Z,25.09
2018-07-23T09:30:56.173Z,24.69
2018-07-23T09:33:25.166Z,24.89
2018-07-23T09:35:53.977Z,24.78
2018-07-23T09:38:23.096Z,24.90
2018-07-23T09:40:52.212Z,25.51
2018-07-23T09:43:20.488Z,25.66
2018-07-23T09:45:48.741Z,25.99
2018-07-23T09:48:17.292Z,26.01
2018-07-23T09:50:45.556Z,25.78
2018-07-23T09:53:13.891Z,26.01
2018-07-23T09:55:42.309Z,25.45
2018-07-23T09:58:10.656Z,26.04
2018-07-23T10:00:44.412Z,26.29
2018-07-23T10:03:12.810Z,26.52
2018-07-23T10:05:40.981Z,26.83
2018-07-23T10:08:09.251Z,26.92
2018-07-23T10:10:37.513Z,26.40
2018-07-23T10:13:05.896Z,26.11
2018-07-23T10:15:34.177Z,26.13
2018-07-23T10:18:02.514Z,26.09
2018-07-23T10:20:32.279Z,26.05
2018-07-23T10:23:00.559Z,26.25
2018-07-23T10:25:29.041Z,26.26
2018-07-23T10:27:57.372Z,26.56
2018-07-23T10:30:25.622Z,27.00
2018-07-23T10:32:54.025Z,27.32
2018-07-23T10:35:22.699Z,27.21
2018-07-23T10:37:50.960Z,27.53
2018-07-23T10:40:19.287Z,27.25
2018-07-23T10:42:47.832Z,26.91
2018-07-23T10:45:16.265Z,27.10
2018-07-23T10:47:44.589Z,27.12
2018-07-23T10:50:13.160Z,27.24
2018-07-23T10:52:41.444Z,27.22
2018-07-23T10:55:09.887Z,27.38
2018-07-23T10:57:38.546Z,27.60
2018-07-23T11:00:07.180Z,27.49
2018-07-23T11:02:35.976Z,27.45
2018-07-23T11:05:04.256Z,27.62
2018-07-23T11:07:32.607Z,27.66
2018-07-23T11:10:00.953Z,27.12
2018-07-23T11:12:29.253Z,27.41
2018-07-23T11:14:57.660Z,27.87
2018-07-23T11:17:25.995Z,27.89
2018-07-23T11:19:54.467Z,27.84
2018-07-23T11:22:22.756Z,28.02
2018-07-23T11:24:51.115Z,28.28
2018-07-23T11:27:19.444Z,28.22
2018-07-23T11:29:47.833Z,28.17
2018-07-23T11:32:38.675Z,28.66
2018-07-23T11:35:07.162Z,28.89
2018-07-23T11:37:35.462Z,28.81
2018-07-23T11:40:03.771Z,28.84
2018-07-23T11:42:32.025Z,28.33
2018-07-23T11:45:00.337Z,28.39
2018-07-23T11:47:28.633Z,28.93
2018-07-23T11:49:56.899Z,29.20
2018-07-23T11:52:25.191Z,28.74
2018-07-23T11:54:53.479Z,28.47
2018-07-23T11:57:21.759Z,28.58
2018-07-23T11:59:50.065Z,28.74
2018-07-23T12:02:18.385Z,29.48
2018-07-23T12:04:46.685Z,29.72
2018-07-23T12:07:14.922Z,29.50
2018-07-23T12:09:43.187Z,29.86
2018-07-23T12:12:11.646Z,29.19
2018-07-23T12:14:40.036Z,29.56
2018-07-23T12:17:08.357Z,30.11
2018-07-23T12:19:36.660Z,29.60
2018-07-23T12:22:04.956Z,30.18
2018-07-23T12:24:34.009Z,30.53
2018-07-23T12:27:02.557Z,30.76
2018-07-23T12:29:30.830Z,30.52
2018-07-23T12:31:59.070Z,31.05
2018-07-23T12:34:27.419Z,31.11
2018-07-23T12:36:55.805Z,31.72
2018-07-23T12:39:24.242Z,31.92
2018-07-23T12:41:52.624Z,32.15
2018-07-23T12:44:21.005Z,31.48
2018-07-23T12:46:49.284Z,32.13
2018-07-23T12:49:17.595Z,33.04
2018-07-23T12:51:45.923Z,33.83
2018-07-23T12:54:14.193Z,33.49
2018-07-23T12:56:42.534Z,31.44
2018-07-23T12:59:10.958Z,31.29
2018-07-23T13:01:39.333Z,32.47
2018-07-23T13:04:07.639Z,31.87
2018-07-23T13:06:35.926Z,32.30
2018-07-23T13:09:06.290Z,33.68
2018-07-23T13:11:35.701Z,34.10
2018-07-23T13:14:03.994Z,32.97
2018-07-23T13:16:32.250Z,34.43
2018-07-23T13:19:00.814Z,34.34
2018-07-23T13:21:29.105Z,35.47
2018-07-23T13:23:57.445Z,35.78
2018-07-23T13:26:26.441Z,34.76
2018-07-23T13:28:54.883Z,36.00
2018-07-23T13:31:23.516Z,35.23
2018-07-23T13:33:51.802Z,35.94
2018-07-23T13:36:20.054Z,34.96
2018-07-23T13:38:48.379Z,33.37
2018-07-23T13:41:16.665Z,32.93
2018-07-23T13:43:44.941Z,34.01
2018-07-23T13:46:13.424Z,35.16
2018-07-23T13:48:41.794Z,35.54
2018-07-23T13:51:10.266Z,36.66
2018-07-23T13:53:38.536Z,37.42
2018-07-23T13:56:06.862Z,38.11
2018-07-23T13:58:35.491Z,36.69
2018-07-23T14:01:04.295Z,38.24
2018-07-23T14:03:32.780Z,37.70
2018-07-23T14:06:01.172Z,37.12
2018-07-23T14:08:29.796Z,36.67
2018-07-23T14:10:58.273Z,35.18
2018-07-23T14:13:26.521Z,34.09
2018-07-23T14:15:55.059Z,36.23
2018-07-23T14:18:23.338Z,39.07
2018-07-23T14:20:51.595Z,36.93
2018-07-23T14:23:19.960Z,36.80
2018-07-23T14:25:48.517Z,35.96
2018-07-23T14:28:16.808Z,36.90
2018-07-23T14:30:45.063Z,37.77
2018-07-23T14:33:14.219Z,39.75
2018-07-23T14:35:42.565Z,38.25
2018-07-23T14:38:10.839Z,37.57
2018-07-23T14:40:39.129Z,39.59
2018-07-23T14:43:07.402Z,40.39
2018-07-23T14:45:35.843Z,40.09
2018-07-23T14:48:04.260Z,41.03
2018-07-23T14:50:32.912Z,39.61
2018-07-23T14:53:01.186Z,37.92
2018-07-23T14:55:29.482Z,37.88
2018-07-23T14:57:57.749Z,36.74
2018-07-23T15:00:26.014Z,36.75
2018-07-23T15:02:54.517Z,36.61
2018-07-23T15:05:23.137Z,36.71
2018-07-23T15:07:51.441Z,36.85
2018-07-23T15:10:19.756Z,37.53
2018-07-23T15:12:48.088Z,34.72
2018-07-23T15:15:16.397Z,34.64
2018-07-23T15:17:44.732Z,35.21
2018-07-23T15:20:13.029Z,36.81
2018-07-23T15:22:41.305Z,38.55
2018-07-23T15:25:09.682Z,36.95
2018-07-23T15:27:37.976Z,38.99
2018-07-23T15:30:06.311Z,39.97
2018-07-23T15:32:34.712Z,40.48
2018-07-23T15:35:03.005Z,41.69
2018-07-23T15:37:31.363Z,41.01
2018-07-23T15:39:59.664Z,39.36
2018-07-23T15:42:27.978Z,40.14
2018-07-23T15:44:56.653Z,40.83
2018-07-23T15:47:25.274Z,39.05
2018-07-23T15:49:53.578Z,39.32
2018-07-23T15:52:21.922Z,41.00
2018-07-23T15:54:50.392Z,38.45
2018-07-23T15:57:18.712Z,35.70
2018-07-23T15:59:47.116Z,37.52
2018-07-23T16:02:15.437Z,40.17
2018-07-23T16:04:43.736Z,37.54
2018-07-23T16:07:12.041Z,36.04
2018-07-23T16:09:40.338Z,35.71
2018-07-23T16:12:08.663Z,35.87
2018-07-23T16:14:37.010Z,36.46
2018-07-23T16:17:05.340Z,39.35
2018-07-23T16:19:33.708Z,37.42
2018-07-23T16:22:02.020Z,37.05
2018-07-23T16:24:30.310Z,39.39
2018-07-23T16:26:58.789Z,38.52
2018-07-23T16:29:27.069Z,41.80
2018-07-23T16:31:55.388Z,41.60
2018-07-23T16:34:23.891Z,42.07
2018-07-23T16:36:52.197Z,41.83
2018-07-23T16:39:20.581Z,40.24
2018-07-23T16:41:48.872Z,40.49
2018-07-23T16:44:17.198Z,36.85
2018-07-23T16:46:45.671Z,40.15
2018-07-23T16:49:13.945Z,38.30
2018-07-23T16:51:42.238Z,34.60
2018-07-23T16:54:10.633Z,36.36
2018-07-23T16:56:38.911Z,37.73
2018-07-23T16:59:07.206Z,36.17
2018-07-23T17:01:35.551Z,35.97
2018-07-23T17:04:03.887Z,38.47
2018-07-23T17:06:32.132Z,39.10
2018-07-23T17:09:01.306Z,37.32
2018-07-23T17:11:31.781Z,36.91
2018-07-23T17:14:00.110Z,38.00
2018-07-23T17:16:28.813Z,37.76
2018-07-23T17:18:57.060Z,38.27
2018-07-23T17:21:25.360Z,39.18
2018-07-23T17:23:53.593Z,40.13
2018-07-23T17:26:22.035Z,39.82
2018-07-23T17:28:50.394Z,37.55
2018-07-23T17:31:18.698Z,37.59
2018-07-23T17:33:47.031Z,38.06
2018-07-23T17:36:15.399Z,37.83
2018-07-23T17:38:43.706Z,37.16
2018-07-23T17:41:11.996Z,36.82
2018-07-23T17:43:40.270Z,35.54
2018-07-23T17:46:08.552Z,35.95
2018-07-23T17:48:36.946Z,36.37
2018-07-23T17:51:11.701Z,36.10
2018-07-23T17:53:40.062Z,38.05
2018-07-23T17:56:08.404Z,38.23
2018-07-23T17:58:36.905Z,38.32
2018-07-23T18:01:05.186Z,38.35
2018-07-23T18:03:33.461Z,39.32
2018-07-23T18:06:01.924Z,38.02
2018-07-23T18:08:30.316Z,39.16
2018-07-23T18:10:58.657Z,36.79
2018-07-23T18:13:26.962Z,37.51
2018-07-23T18:15:55.277Z,38.57
2018-07-23T18:18:23.907Z,36.31
2018-07-23T18:20:52.261Z,34.81
2018-07-23T18:23:20.512Z,33.93
2018-07-23T18:25:49.067Z,33.61
2018-07-23T18:28:17.342Z,32.90
2018-07-23T18:30:45.625Z,32.41
2018-07-23T18:33:13.936Z,32.23
2018-07-23T18:35:42.192Z,32.00
2018-07-23T18:38:10.528Z,32.49
2018-07-23T18:40:39.000Z,32.53
2018-07-23T18:43:07.293Z,32.73
2018-07-23T18:45:35.805Z,32.49
2018-07-23T18:48:12.315Z,31.54
2018-07-23T18:50:40.681Z,31.66
2018-07-23T18:53:09.102Z,31.02
2018-07-23T18:55:37.417Z,31.02
2018-07-23T18:58:05.866Z,31.14
2018-07-23T19:00:34.182Z,31.05
2018-07-23T19:03:02.498Z,30.90
2018-07-23T19:05:30.807Z,30.60
2018-07-23T19:07:59.142Z,30.27
2018-07-23T19:10:27.450Z,29.89
2018-07-23T19:12:55.736Z,29.75
2018-07-23T19:15:24.055Z,29.36
2018-07-23T19:17:52.335Z,29.34
2018-07-23T19:20:20.793Z,29.21
2018-07-23T19:22:49.026Z,29.11
2018-07-23T19:25:17.557Z,28.93
2018-07-23T19:27:45.826Z,28.80
2018-07-23T19:30:14.118Z,28.67
2018-07-23T19:32:42.419Z,28.56
2018-07-23T19:35:10.736Z,28.45
2018-07-23T19:37:38.950Z,28.31
2018-07-23T19:40:07.316Z,28.08
2018-07-23T19:42:35.655Z,27.96
2018-07-23T19:45:03.950Z,27.92
2018-07-23T19:47:32.275Z,27.79
2018-07-23T19:50:00.550Z,27.62
2018-07-23T19:52:28.857Z,27.53
2018-07-23T19:54:57.482Z,27.38
2018-07-23T19:57:25.763Z,27.19
2018-07-23T19:59:54.035Z,27.08
2018-07-23T20:02:24.389Z,26.95
2018-07-23T20:04:52.716Z,26.81
2018-07-23T20:07:21.001Z,26.70
2018-07-23T20:09:50.018Z,26.58
2018-07-23T20:12:18.408Z,26.47
2018-07-23T20:14:46.761Z,26.29
2018-07-23T20:17:21.208Z,26.10
2018-07-23T20:19:49.718Z,25.99
2018-07-23T20:22:18.438Z,25.90
2018-07-23T20:24:46.775Z,25.81
2018-07-23T20:27:15.080Z,25.71
2018-07-23T20:29:43.367Z,25.55
2018-07-23T20:32:11.771Z,25.45
2018-07-23T20:34:40.125Z,25.38
2018-07-23T20:37:09.657Z,25.30
2018-07-23T20:39:38.354Z,25.20
2018-07-23T20:42:06.622Z,25.12
2018-07-23T20:44:34.886Z,25.03
2018-07-23T20:47:03.195Z,24.95
2018-07-23T20:49:31.474Z,24.86
2018-07-23T20:51:59.741Z,24.73
2018-07-23T20:54:27.988Z,24.58
2018-07-23T20:56:56.616Z,24.45
2018-07-23T20:59:24.877Z,24.31
2018-07-23T21:01:53.243Z,24.08
2018-07-23T21:04:21.590Z,24.19
2018-07-23T21:06:49.940Z,24.24
2018-07-23T21:09:18.369Z,24.19
2018-07-23T21:11:46.604Z,24.10
2018-07-23T21:14:14.913Z,24.07
2018-07-23T21:16:43.213Z,24.03
2018-07-23T21:19:11.497Z,23.86
2018-07-23T21:21:39.872Z,23.85
2018-07-23T21:24:08.156Z,23.81
2018-07-23T21:26:36.435Z,23.66
2018-07-23T21:29:04.752Z,23.63
2018-07-23T21:31:33.014Z,23.47
2018-07-23T21:34:01.302Z,23.32
2018-07-23T21:36:29.656Z,23.30
2018-07-23T21:38:57.946Z,23.21
2018-07-23T21:41:26.259Z,23.09
2018-07-23T21:43:54.620Z,23.12
2018-07-23T21:46:22.896Z,23.16
2018-07-23T21:48:51.209Z,22.95
2018-07-23T21:51:19.490Z,23.00
2018-07-23T21:53:47.815Z,23.01
2018-07-23T21:56:16.489Z,22.99
2018-07-23T21:58:44.732Z,22.88
2018-07-23T22:01:12.975Z,22.80
2018-07-23T22:03:41.273Z,22.79
2018-07-23T22:06:09.747Z,22.84
2018-07-23T22:08:37.983Z,22.60
2018-07-23T22:11:06.423Z,22.57
2018-07-23T22:13:34.757Z,22.49
2018-07-23T22:16:03.301Z,22.51
2018-07-23T22:18:31.565Z,22.49
2018-07-23T22:20:59.795Z,22.53
2018-07-23T22:23:28.218Z,22.50
2018-07-23T22:25:56.449Z,22.57
2018-07-23T22:28:24.812Z,22.55
2018-07-23T22:30:53.063Z,22.47
2018-07-23T22:33:21.301Z,22.45
2018-07-23T22:35:49.598Z,22.41
2018-07-23T22:38:17.850Z,22.34
2018-07-23T22:40:46.150Z,22.27
2018-07-23T22:43:14.396Z,22.08
2018-07-23T22:45:42.708Z,22.15
2018-07-23T22:48:10.969Z,22.08
2018-07-23T22:50:39.248Z,22.05
2018-07-23T22:53:07.610Z,22.13
2018-07-23T22:55:36.072Z,22.14
2018-07-23T22:58:04.678Z,22.18
2018-07-23T23:00:33.205Z,22.15
2018-07-23T23:03:01.499Z,22.23
2018-07-23T23:05:29.796Z,22.18
2018-07-23T23:07:58.061Z,22.14
2018-07-23T23:10:26.357Z,22.00
2018-07-23T23:12:54.750Z,21.93
2018-07-23T23:15:22.992Z,21.96
2018-07-23T23:17:51.420Z,21.91
2018-07-23T23:20:19.660Z,21.69
2018-07-23T23:22:47.933Z,21.56
2018-07-23T23:25:16.196Z,21.70
2018-07-23T23:27:44.448Z,21.55
2018-07-23T23:30:12.758Z,21.60
2018-07-23T23:32:41.040Z,21.51
2018-07-23T23:35:09.629Z,21.58
2018-07-23T23:37:37.870Z,21.62
2018-07-23T23:40:06.347Z,21.66
2018-07-23T23:42:34.732Z,21.57
2018-07-23T23:45:03.220Z,21.60
2018-07-23T23:47:31.525Z,21.45
2018-07-23T23:49:59.827Z,21.34
2018-07-23T23:52:28.135Z,21.28
2018-07-23T23:54:56.397Z,21.24
2018-07-23T23:57:24.762Z,21.29
2018-07-23T23:59:53.070Z,21.29
